createdAt,value
2019-04-29T00:02:23.020Z,5.3
2019-04-29T00:07:25.369Z,5.3
2019-04-29T00:12:27.705Z,5.2
2019-04-29T00:17:30.023Z,5.3
2019-04-29T00:22:32.222Z,5.2
2019-04-29T00:27:34.572Z,5.1
2019-04-29T00:32:36.896Z,5.1
2019-04-29T00:37:39.140Z,5.1
2019-04-29T00:42:41.343Z,5
2019-04-29T00:47:43.824Z,5
2019-04-29T00:52:45.969Z,4.9
2019-04-29T00:57:48.343Z,4.9
2019-04-29T01:02:50.724Z,5
2019-04-29T01:07:52.988Z,5.2
2019-04-29T01:12:55.165Z,5.3
2019-04-29T01:17:57.429Z,5.3
2019-04-29T01:22:59.763Z,5.3
2019-04-29T01:28:02.176Z,5.2
2019-04-29T01:33:04.325Z,5.1
2019-04-29T01:38:06.660Z,5
2019-04-29T01:43:09.030Z,4.9
2019-04-29T01:48:11.435Z,4.9
2019-04-29T01:53:13.494Z,4.7
2019-04-29T01:58:15.801Z,4.7
2019-04-29T02:03:18.210Z,4.5
2019-04-29T02:08:20.427Z,4.5
2019-04-29T02:13:22.696Z,4.4
2019-04-29T02:18:25.085Z,4.3
2019-04-29T02:23:27.429Z,4.3
2019-04-29T02:28:29.622Z,4.2
2019-04-29T02:33:31.961Z,4.2
2019-04-29T02:38:34.188Z,4.1
2019-04-29T02:43:36.482Z,4.1
2019-04-29T02:48:38.779Z,4.1
2019-04-29T02:53:41.177Z,4
2019-04-29T02:58:43.465Z,4
2019-04-29T03:03:45.610Z,4
2019-04-29T03:08:47.935Z,4
2019-04-29T03:13:50.271Z,3.9
2019-04-29T03:18:52.644Z,3.9
2019-04-29T03:23:54.836Z,3.8
2019-04-29T03:28:57.054Z,3.8
2019-04-29T03:33:59.371Z,3.8
2019-04-29T03:39:01.676Z,3.9
2019-04-29T03:44:04.100Z,4
2019-04-29T03:49:06.385Z,4
2019-04-29T03:54:08.726Z,4
2019-04-29T03:59:10.820Z,4
2019-04-29T04:04:13.287Z,4
2019-04-29T04:09:15.475Z,4.1
2019-04-29T04:14:17.847Z,4
2019-04-29T04:19:20.167Z,4
2019-04-29T04:24:22.340Z,3.8
2019-04-29T04:29:24.753Z,3.8
2019-04-29T04:34:27.034Z,3.8
2019-04-29T04:39:29.149Z,3.6
2019-04-29T04:44:31.509Z,3.6
2019-04-29T04:49:33.743Z,3.5
2019-04-29T04:54:36.244Z,3.5
2019-04-29T04:59:38.558Z,3.5
2019-04-29T05:04:40.710Z,3.6
2019-04-29T05:09:43.021Z,3.8
2019-04-29T05:14:45.246Z,3.9
2019-04-29T05:19:47.650Z,4
2019-04-29T05:24:49.911Z,4.1
2019-04-29T05:29:52.124Z,4.2
2019-04-29T05:34:55.069Z,4.4
2019-04-29T05:39:56.702Z,4.5
2019-04-29T05:44:59.084Z,4.7
2019-04-29T05:50:01.420Z,5
2019-04-29T05:55:03.643Z,5.2
2019-04-29T06:00:05.861Z,5.5
2019-04-29T06:05:08.320Z,5.7
2019-04-29T06:10:10.603Z,6.2
2019-04-29T06:15:12.715Z,6.8
2019-04-29T06:20:17.512Z,7.2
2019-04-29T06:25:17.388Z,7.6
2019-04-29T06:30:19.839Z,7.8
2019-04-29T06:35:22.031Z,8
2019-04-29T06:40:24.303Z,8.2
2019-04-29T06:45:26.577Z,8.4
2019-04-29T06:50:28.911Z,8.4
2019-04-29T06:55:31.424Z,8.4
2019-04-29T07:00:33.549Z,8.5
2019-04-29T07:05:35.957Z,8.7
2019-04-29T07:10:38.151Z,8.9
2019-04-29T07:15:43.470Z,9.3
2019-04-29T07:20:42.638Z,9.6
2019-04-29T07:25:44.903Z,10
2019-04-29T07:31:00.890Z,10.5
2019-04-29T07:35:49.719Z,11
2019-04-29T07:40:51.810Z,11.6
2019-04-29T07:45:54.199Z,12
2019-04-29T07:50:59.459Z,12.6
2019-04-29T07:56:01.746Z,13.1
2019-04-29T08:01:01.054Z,13.5
2019-04-29T08:06:03.268Z,13.9
2019-04-29T08:11:05.522Z,14.1
2019-04-29T08:16:07.963Z,14.2
2019-04-29T08:21:13.917Z,14.4
2019-04-29T08:26:12.409Z,13.8
2019-04-29T08:31:16.662Z,13.5
2019-04-29T08:36:17.170Z,14.1
2019-04-29T08:41:21.582Z,14.7
2019-04-29T08:46:21.594Z,15
2019-04-29T08:51:23.906Z,15.4
2019-04-29T08:56:26.351Z,15.8
2019-04-29T09:01:29.276Z,16.1
2019-04-29T09:06:32.648Z,16.6
2019-04-29T09:11:33.110Z,17
2019-04-29T09:16:35.413Z,17.6
2019-04-29T09:21:37.762Z,18
2019-04-29T09:26:40.109Z,18.6
2019-04-29T09:31:42.461Z,18.9
2019-04-29T09:36:48.406Z,19
2019-04-29T09:41:46.810Z,18
2019-04-29T09:46:49.182Z,18.200001
2019-04-29T09:51:51.567Z,18.700001
2019-04-29T09:56:53.766Z,18.299999
2019-04-29T10:01:56.308Z,18.200001
2019-04-29T10:06:58.339Z,17.299999
2019-04-29T10:12:00.654Z,16.6
2019-04-29T10:17:03.131Z,17.200001
2019-04-29T10:22:05.238Z,17
2019-04-29T10:27:07.547Z,16.5
2019-04-29T10:32:09.760Z,16.1
2019-04-29T10:37:12.025Z,16.6
2019-04-29T10:42:14.496Z,16.4
2019-04-29T10:47:16.715Z,16.5
2019-04-29T10:52:18.966Z,17.5
2019-04-29T10:57:21.253Z,18.700001
2019-04-29T11:02:23.580Z,19.5
2019-04-29T11:07:26.676Z,20
2019-04-29T11:12:28.180Z,20.1
2019-04-29T11:17:30.412Z,20.299999
2019-04-29T11:22:33.963Z,20
2019-04-29T11:27:35.148Z,19.5
2019-04-29T11:32:37.357Z,18.6
2019-04-29T11:37:39.656Z,17.799999
2019-04-29T11:42:42.078Z,18
2019-04-29T11:47:44.288Z,17.700001
2019-04-29T11:52:46.581Z,17.299999
2019-04-29T11:57:48.834Z,17.6
2019-04-29T12:02:51.063Z,19.1
2019-04-29T12:07:53.583Z,20.6
2019-04-29T12:12:55.721Z,21.200001
2019-04-29T12:17:58.016Z,21.5
2019-04-29T12:23:00.275Z,20.700001
2019-04-29T12:28:18.136Z,20.4
2019-04-29T12:33:04.834Z,19.799999
2019-04-29T12:38:11.050Z,19.1
2019-04-29T12:43:11.180Z,19.299999
2019-04-29T12:48:24.014Z,19.200001
2019-04-29T12:53:14.125Z,18.700001
2019-04-29T12:58:19.162Z,19.799999
2019-04-29T13:03:18.584Z,20.799999
2019-04-29T13:08:21.066Z,20.799999
2019-04-29T13:13:23.249Z,20.299999
2019-04-29T13:18:25.524Z,19.799999
2019-04-29T13:23:34.772Z,19
2019-04-29T13:28:32.713Z,18.5
2019-04-29T13:33:32.443Z,18.799999
2019-04-29T13:38:34.781Z,19.6
2019-04-29T13:43:37.243Z,19.5
2019-04-29T13:48:54.836Z,18.9
2019-04-29T13:53:41.576Z,18.1
2019-04-29T13:58:43.877Z,17.5
2019-04-29T14:03:47.989Z,17.4
2019-04-29T14:08:48.459Z,17.700001
2019-04-29T14:13:50.660Z,17.6
2019-04-29T14:18:53.008Z,17.200001
2019-04-29T14:23:55.360Z,17
2019-04-29T14:28:57.643Z,16.799999
2019-04-29T14:34:00.488Z,16.6
2019-04-29T14:39:02.228Z,16.700001
2019-04-29T14:44:04.534Z,16.700001
2019-04-29T14:49:06.864Z,16.5
2019-04-29T14:54:09.162Z,16.299999
2019-04-29T14:59:11.381Z,16.299999
2019-04-29T15:04:18.435Z,16.5
2019-04-29T15:09:17.793Z,16.6
2019-04-29T15:14:22.903Z,16.799999
2019-04-29T15:19:20.612Z,16.799999
2019-04-29T15:24:22.864Z,16.6
2019-04-29T15:29:25.279Z,16.4
2019-04-29T15:34:27.556Z,16.299999
2019-04-29T15:39:29.747Z,17
2019-04-29T15:44:32.050Z,17.4
2019-04-29T15:49:34.396Z,18.1
2019-04-29T15:54:36.654Z,18.799999
2019-04-29T15:59:48.486Z,18.799999
2019-04-29T16:04:41.449Z,18.799999
2019-04-29T16:09:51.944Z,18.6
2019-04-29T16:14:49.086Z,18.4
2019-04-29T16:19:48.123Z,18
2019-04-29T16:24:50.452Z,17.799999
2019-04-29T16:29:54.271Z,17.6
2019-04-29T16:34:55.125Z,17.1
2019-04-29T16:39:59.723Z,16.700001
2019-04-29T16:44:59.639Z,16.200001
2019-04-29T16:50:04.828Z,16
2019-04-29T16:55:05.917Z,15.8
2019-04-29T17:00:13.813Z,15.5
2019-04-29T17:05:08.837Z,15.5
2019-04-29T17:10:11.202Z,15.5
2019-04-29T17:15:24.087Z,15.3
2019-04-29T17:20:15.663Z,15.2
2019-04-29T17:25:17.906Z,15.1
2019-04-29T17:30:20.337Z,14.8
2019-04-29T17:35:23.009Z,14.6
2019-04-29T17:35:52.576Z,14.6
2019-04-29T17:40:24.794Z,14.3
2019-04-29T17:45:30.434Z,14.1
2019-04-29T17:50:30.990Z,13.9
2019-04-29T17:55:37.884Z,13.7
2019-04-29T18:00:42.220Z,13.6
2019-04-29T18:05:52.192Z,13.5
2019-04-29T18:10:40.145Z,13.3
2019-04-29T18:15:57.394Z,13.2
2019-04-29T18:20:44.843Z,13.2
2019-04-29T18:25:45.418Z,13.1
2019-04-29T18:30:49.676Z,12.9
2019-04-29T18:35:50.041Z,12.8
2019-04-29T18:40:52.411Z,12.8
2019-04-29T18:45:58.315Z,12.6
2019-04-29T18:50:57.044Z,12.4
2019-04-29T18:55:59.343Z,12.3
2019-04-29T19:01:01.578Z,12.2
2019-04-29T19:06:10.333Z,12.1
2019-04-29T19:11:06.994Z,11.9
2019-04-29T19:16:10.401Z,11.7
2019-04-29T19:21:10.785Z,11.6
2019-04-29T19:26:13.215Z,11.4
2019-04-29T19:31:15.302Z,11.3
2019-04-29T19:36:18.500Z,11.2
2019-04-29T19:41:20.012Z,11
2019-04-29T19:46:24.841Z,10.9
2019-04-29T19:51:25.665Z,10.8
2019-04-29T19:56:27.187Z,10.6
2019-04-29T20:01:31.704Z,10.5
2019-04-29T20:06:32.100Z,10.4
2019-04-29T20:11:34.468Z,10.3
2019-04-29T20:16:43.261Z,10.2
2019-04-29T20:21:38.631Z,10.1
2019-04-29T20:26:43.843Z,10.1
2019-04-29T20:31:48.715Z,10
2019-04-29T20:36:45.665Z,9.9
2019-04-29T20:41:49.010Z,9.9
2019-04-29T20:47:13.154Z,9.8
2019-04-29T20:47:23.037Z,9.8
2019-04-29T20:51:52.748Z,9.7
2019-04-29T20:57:02.954Z,9.7
2019-04-29T21:02:05.133Z,9.6
2019-04-29T21:07:01.871Z,9.5
2019-04-29T21:12:01.328Z,9.4
2019-04-29T21:22:05.786Z,9.4
2019-04-29T21:27:08.067Z,9.4
2019-04-29T21:32:10.430Z,9.5
2019-04-29T21:37:12.612Z,9.6
2019-04-29T21:42:15.732Z,9.7
2019-04-29T21:47:17.217Z,9.8
2019-04-29T21:52:23.645Z,9.9
2019-04-29T21:57:23.745Z,9.9
2019-04-29T22:02:25.985Z,10
2019-04-29T22:07:26.393Z,10
2019-04-29T22:12:28.846Z,10
2019-04-29T22:17:41.148Z,10
2019-04-29T22:22:42.326Z,10
2019-04-29T22:27:45.086Z,10
2019-04-29T22:32:47.151Z,9.9
2019-04-29T22:37:49.152Z,9.9
2019-04-29T22:42:51.512Z,9.9
2019-04-29T22:47:54.571Z,9.9
2019-04-29T22:52:57.183Z,9.9
2019-04-29T22:58:00.773Z,10
2019-04-29T23:03:02.213Z,10
2019-04-29T23:08:03.020Z,9.9
2019-04-29T23:13:06.210Z,9.9
2019-04-29T23:18:07.739Z,9.9
2019-04-29T23:23:09.909Z,9.9
2019-04-29T23:28:12.180Z,9.8
2019-04-29T23:33:15.116Z,9.8
2019-04-29T23:38:16.604Z,9.9
2019-04-29T23:43:19.958Z,9.8
2019-04-29T23:48:23.800Z,9.7
2019-04-29T23:53:25.176Z,9.6
2019-04-29T23:58:25.769Z,9.6
